Kailua Kona, HI (96745)

8:00 AM HST on April 30, 2017 (GMT -1000)
Kawena Place | | Change Station
Active Advisory: Flash Flood Watch Active Notice: Flash Flood Watch

Elev 387 ft 19.64 °N, 155.98 °W | Updated 26 seconds ago

Overcast
Overcast
72.6 °F
Feels Like 73 °F
N
2.0
Wind Variable Wind from South

Today
High -- | Low -- °F
--% Chance of Precip.
Yesterday
High -- | Low -- °F
Precip. -- in
Pressure 29.89 in
Visibility 10.0 miles
Clouds Few 3500 ft
Mostly Cloudy 6000 ft
Overcast 15000 ft
Heat Index 73 °F
Dew Point 66 °F
Humidity 80%
Rainfall 0.13 in
Snow Depth Not available.
5:55 AM 6:46 PM
Waxing Crescent, 24% visible
METAR PHKO 301753Z 16012KT 10SM FEW035 BKN060 OVC150 24/18 A2989 RMK AO2 SLP122 T02440183 10250 20228 51027 $
Pressure 29.89 in
Visibility 10.0 miles
Clouds Few 3500 ft
Mostly Cloudy 6000 ft
Overcast 15000 ft
Heat Index 73 °F
Dew Point 66 °F
Humidity 80%
Rainfall 0.13 in
Snow Depth Not available.
5:55 AM 6:46 PM
Waxing Crescent, 24% visible
METAR PHKO 301753Z 16012KT 10SM FEW035 BKN060 OVC150 24/18 A2989 RMK AO2 SLP122 T02440183 10250 20228 51027 $

Get Your Daily Forecast Email!

Thanks for signing up!

Be on the lookout for a verification email in your inbox.

You'll start receiving severe weather alerts in your inbox..

×

10-Day Weather Forecast

Almanac

Astronomy

Apr. 30, 2017 Rise Set
Actual Time
Civil Twilight
Nautical Twilight
Astronomical Twilight
Moon
Length of Visible Light
Length of Day
Tomorrow will be .
, % of the Moon is Illuminated

Today's Extremes

State Highs State Lows

Community

WunderPhotos

WunderBlog® & News

Nearby

Air Quality

  Air Quality AQ Index Pollutant
Not available.

Snow Depth

Station Depth Elevation

Earthquake Activity

City Distance Mag. Time & Date
Minimum magnitude displayed is 2.5.

Coastal Water Temperatures

Place Temperature

Stations

Nearby Weather Stations

Station Location Temp. Windchill Dew Point Humidity Wind Precip. Elev Updated Type
                   

Watches & Warnings

Flash Flood Watch
Issued: 3:54 AM HST Apr. 30, 2017 – National Weather Service

... Flash Flood Watch remains in effect through this afternoon...

The Flash Flood Watch continues for

* Kahoolawe, Lanai, Maui, Molokai, Oahu and The Big Island.

* Through late this afternoon

* a Kona low passing near the islands will bring the continued
threat for flash-flooding to most of the Hawaiian islands, with
the highest probabilities for flooding rains expected across
Maui County and The Big Island.

* Moderate to heavy rainfall is expected to be widespread,
especially across Maui County and The Big Island. Rain will not
only affect windward areas, but will also impact urban and
leeward areas which are more susceptible to flooding problems.

Precautionary/preparedness actions...

A Flash Flood Watch means that conditions may develop that lead
to flash flooding. Flash flooding is a very dangerous situation.

You should monitor later forecasts and be prepared to take action
should flash flood warnings be issued.